sensor_id;sensor_type;location;lat;lon;timestamp;pressure;altitude;pressure_sealevel;temperature;humidity
14293;BME280;62290;59.420;17.842;2023-04-08T00:01:36;102713.06;;;26.15;17.88
14293;BME280;62290;59.420;17.842;2023-04-08T00:04:04;102716.63;;;26.15;18.07
14293;BME280;62290;59.420;17.842;2023-04-08T00:06:32;102716.63;;;26.15;17.78
14293;BME280;62290;59.420;17.842;2023-04-08T00:09:00;102718.47;;;26.15;18.08
14293;BME280;62290;59.420;17.842;2023-04-08T00:11:29;102719.44;;;26.14;17.71
14293;BME280;62290;59.420;17.842;2023-04-08T00:13:58;102716.75;;;26.14;17.64
14293;BME280;62290;59.420;17.842;2023-04-08T00:16:26;102720.31;;;26.14;17.80
14293;BME280;62290;59.420;17.842;2023-04-08T00:18:55;102691.59;;;25.99;17.78
14293;BME280;62290;59.420;17.842;2023-04-08T00:21:23;102717.59;;;26.14;17.52
14293;BME280;62290;59.420;17.842;2023-04-08T00:23:52;102710.47;;;26.13;17.41
14293;BME280;62290;59.420;17.842;2023-04-08T00:26:21;102717.41;;;26.17;17.92
14293;BME280;62290;59.420;17.842;2023-04-08T00:28:49;102721.75;;;26.20;17.49
14293;BME280;62290;59.420;17.842;2023-04-08T00:31:18;102721.75;;;26.20;17.53
14293;BME280;62290;59.420;17.842;2023-04-08T00:33:47;102716.34;;;26.20;17.81
14293;BME280;62290;59.420;17.842;2023-04-08T00:36:15;102685.13;;;26.02;17.89
14293;BME280;62290;59.420;17.842;2023-04-08T00:38:44;102721.63;;;26.21;17.73
14293;BME280;62290;59.420;17.842;2023-04-08T00:41:13;102720.66;;;26.22;17.36
14293;BME280;62290;59.420;17.842;2023-04-08T00:43:41;102721.63;;;26.21;17.42
14293;BME280;62290;59.420;17.842;2023-04-08T00:46:09;102728.78;;;26.22;17.75
14293;BME280;62290;59.420;17.842;2023-04-08T00:48:39;102728.00;;;26.20;17.60
14293;BME280;62290;59.420;17.842;2023-04-08T00:51:07;102712.84;;;26.18;17.33
14293;BME280;62290;59.420;17.842;2023-04-08T00:53:35;102677.50;;;25.94;17.57
14293;BME280;62290;59.420;17.842;2023-04-08T00:56:03;102719.31;;;26.15;17.47
14293;BME280;62290;59.420;17.842;2023-04-08T00:58:32;102719.13;;;26.18;17.46
14293;BME280;62290;59.420;17.842;2023-04-08T01:01:05;102713.84;;;26.17;17.37
14293;BME280;62290;59.420;17.842;2023-04-08T01:03:43;102724.53;;;26.18;17.92
14293;BME280;62290;59.420;17.842;2023-04-08T01:06:22;102726.47;;;26.16;17.84
14293;BME280;62290;59.420;17.842;2023-04-08T01:08:53;102721.06;;;26.16;17.50
14293;BME280;62290;59.420;17.842;2023-04-08T01:11:21;102701.75;;;26.08;17.60
14293;BME280;62290;59.420;17.842;2023-04-08T01:13:52;102726.28;;;26.19;17.42
14293;BME280;62290;59.420;17.842;2023-04-08T01:16:22;102727.16;;;26.20;17.30
14293;BME280;62290;59.420;17.842;2023-04-08T01:18:53;102727.03;;;26.21;17.78
14293;BME280;62290;59.420;17.842;2023-04-08T01:21:22;102730.50;;;26.23;17.71
14293;BME280;62290;59.420;17.842;2023-04-08T01:23:58;102729.41;;;26.26;17.43
14293;BME280;62290;59.420;17.842;2023-04-08T01:26:30;102717.19;;;26.20;17.71
14293;BME280;62290;59.420;17.842;2023-04-08T01:29:00;102724.13;;;26.24;17.71
14293;BME280;62290;59.420;17.842;2023-04-08T01:31:30;102726.06;;;26.22;17.29
14293;BME280;62290;59.420;17.842;2023-04-08T01:34:00;102727.78;;;26.23;17.76
14293;BME280;62290;59.420;17.842;2023-04-08T01:36:31;102724.13;;;26.24;17.72
14293;BME280;62290;59.420;17.842;2023-04-08T01:39:00;102723.38;;;26.22;17.50
14293;BME280;62290;59.420;17.842;2023-04-08T01:41:35;102725.28;;;26.20;17.50
14293;BME280;62290;59.420;17.842;2023-04-08T01:44:04;102726.28;;;26.19;17.72
14293;BME280;62290;59.420;17.842;2023-04-08T01:46:33;102729.72;;;26.21;17.83
14293;BME280;62290;59.420;17.842;2023-04-08T01:49:03;102647.50;;;25.72;17.74
14293;BME280;62290;59.420;17.842;2023-04-08T01:51:35;102734.25;;;26.21;17.37
14293;BME280;62290;59.420;17.842;2023-04-08T01:54:04;102735.53;;;26.15;17.62
14293;BME280;62290;59.420;17.842;2023-04-08T01:56:36;102729.94;;;26.18;17.53
14293;BME280;62290;59.420;17.842;2023-04-08T01:59:10;102740.75;;;26.18;17.71
14293;BME280;62290;59.420;17.842;2023-04-08T02:01:41;102739.88;;;26.18;17.35
14293;BME280;62290;59.420;17.842;2023-04-08T02:04:11;102744.44;;;26.17;17.73
14293;BME280;62290;59.420;17.842;2023-04-08T02:06:40;102739.88;;;26.18;17.91
14293;BME280;62290;59.420;17.842;2023-04-08T02:09:08;102747.22;;;26.16;17.87
14293;BME280;62290;59.420;17.842;2023-04-08T02:11:38;102741.94;;;26.14;17.42
14293;BME280;62290;59.420;17.842;2023-04-08T02:14:06;102741.06;;;26.14;17.51
14293;BME280;62290;59.420;17.842;2023-04-08T02:16:39;102741.19;;;26.12;17.53
14293;BME280;62290;59.420;17.842;2023-04-08T02:19:14;102707.13;;;25.96;17.73
14293;BME280;62290;59.420;17.842;2023-04-08T02:21:47;102738.91;;;26.19;17.38
14293;BME280;62290;59.420;17.842;2023-04-08T02:24:17;102739.78;;;26.19;17.89
14293;BME280;62290;59.420;17.842;2023-04-08T02:26:49;102681.38;;;25.90;17.73
14293;BME280;62290;59.420;17.842;2023-04-08T02:29:18;102741.75;;;26.17;17.75
14293;BME280;62290;59.420;17.842;2023-04-08T02:31:46;102737.28;;;26.16;18.00
14293;BME280;62290;59.420;17.842;2023-04-08T02:34:16;102733.13;;;26.11;17.40
14293;BME280;62290;59.420;17.842;2023-04-08T02:36:44;102747.13;;;26.17;17.76
14293;BME280;62290;59.420;17.842;2023-04-08T02:39:15;102743.44;;;26.18;17.71
14293;BME280;62290;59.420;17.842;2023-04-08T02:41:48;102744.44;;;26.17;17.48
14293;BME280;62290;59.420;17.842;2023-04-08T02:44:16;102738.16;;;26.17;17.90
14293;BME280;62290;59.420;17.842;2023-04-08T02:46:44;102748.09;;;26.16;17.41
14293;BME280;62290;59.420;17.842;2023-04-08T02:49:12;102749.84;;;26.17;17.33
14293;BME280;62290;59.420;17.842;2023-04-08T02:51:40;102750.81;;;26.16;17.57
14293;BME280;62290;59.420;17.842;2023-04-08T02:54:08;102745.41;;;26.16;17.88
14293;BME280;62290;59.420;17.842;2023-04-08T02:56:36;102746.34;;;26.15;17.74
14293;BME280;62290;59.420;17.842;2023-04-08T02:59:06;102740.09;;;26.15;17.74
14293;BME280;62290;59.420;17.842;2023-04-08T03:01:34;102742.69;;;26.16;17.75
14293;BME280;62290;59.420;17.842;2023-04-08T03:04:02;102750.69;;;26.18;17.81
14293;BME280;62290;59.420;17.842;2023-04-08T03:06:30;102745.19;;;26.19;17.45
14293;BME280;62290;59.420;17.842;2023-04-08T03:08:58;102749.59;;;26.20;17.56
14293;BME280;62290;59.420;17.842;2023-04-08T03:11:26;102755.00;;;26.20;17.52
14293;BME280;62290;59.420;17.842;2023-04-08T03:13:54;102757.84;;;26.19;17.43
14293;BME280;62290;59.420;17.842;2023-04-08T03:16:24;102753.94;;;26.23;17.74
14293;BME280;62290;59.420;17.842;2023-04-08T03:18:52;102755.69;;;26.24;17.71
14293;BME280;62290;59.420;17.842;2023-04-08T03:21:20;102753.09;;;26.22;17.59
14293;BME280;62290;59.420;17.842;2023-04-08T03:23:48;102759.16;;;26.26;17.62
14293;BME280;62290;59.420;17.842;2023-04-08T03:26:16;102758.28;;;26.25;17.22
14293;BME280;62290;59.420;17.842;2023-04-08T03:28:44;102755.38;;;26.28;17.33
14293;BME280;62290;59.420;17.842;2023-04-08T03:31:12;102753.53;;;26.29;17.66
14293;BME280;62290;59.420;17.842;2023-04-08T03:33:41;102716.22;;;26.07;17.31
14293;BME280;62290;59.420;17.842;2023-04-08T03:36:09;102758.06;;;26.28;17.64
14293;BME280;62290;59.420;17.842;2023-04-08T03:38:37;102763.41;;;26.30;17.41
14293;BME280;62290;59.420;17.842;2023-04-08T03:41:05;102754.41;;;26.29;17.56
14293;BME280;62290;59.420;17.842;2023-04-08T03:43:33;102761.66;;;26.29;17.18
14293;BME280;62290;59.420;17.842;2023-04-08T03:46:03;102770.75;;;26.28;17.64
14293;BME280;62290;59.420;17.842;2023-04-08T03:48:31;102767.06;;;26.29;17.37
14293;BME280;62290;59.420;17.842;2023-04-08T03:51:01;102762.53;;;26.29;17.54
14293;BME280;62290;59.420;17.842;2023-04-08T03:53:29;102755.69;;;26.24;17.56
14293;BME280;62290;59.420;17.842;2023-04-08T03:55:58;102770.44;;;26.32;17.38
14293;BME280;62290;59.420;17.842;2023-04-08T03:58:27;102767.72;;;26.32;17.08
14293;BME280;62290;59.420;17.842;2023-04-08T04:00:55;102771.38;;;26.31;17.12
14293;BME280;62290;59.420;17.842;2023-04-08T04:03:23;102767.81;;;26.31;17.33
14293;BME280;62290;59.420;17.842;2023-04-08T04:05:51;102776.91;;;26.30;17.53
14293;BME280;62290;59.420;17.842;2023-04-08T04:08:20;102770.63;;;26.29;17.49
14293;BME280;62290;59.420;17.842;2023-04-08T04:10:48;102771.50;;;26.30;17.48
14293;BME280;62290;59.420;17.842;2023-04-08T04:13:17;102776.78;;;26.31;17.00
14293;BME280;62290;59.420;17.842;2023-04-08T04:15:45;102781.25;;;26.32;17.48
14293;BME280;62290;59.420;17.842;2023-04-08T04:18:13;102785.78;;;26.32;17.41
14293;BME280;62290;59.420;17.842;2023-04-08T04:20:41;102757.94;;;26.17;17.24
14293;BME280;62290;59.420;17.842;2023-04-08T04:23:09;102781.56;;;26.28;17.07
14293;BME280;62290;59.420;17.842;2023-04-08T04:25:41;102789.44;;;26.31;17.08
14293;BME280;62290;59.420;17.842;2023-04-08T04:28:09;102784.34;;;26.26;17.08
14293;BME280;62290;59.420;17.842;2023-04-08T04:30:38;102789.69;;;26.28;17.10
14293;BME280;62290;59.420;17.842;2023-04-08T04:33:06;102783.47;;;26.26;17.46
14293;BME280;62290;59.420;17.842;2023-04-08T04:35:34;102786.28;;;26.24;17.00
14293;BME280;62290;59.420;17.842;2023-04-08T04:38:02;102790.06;;;26.22;17.58
14293;BME280;62290;59.420;17.842;2023-04-08T04:40:33;102781.19;;;26.20;17.05
14293;BME280;62290;59.420;17.842;2023-04-08T04:43:03;102786.69;;;26.18;17.11
14293;BME280;62290;59.420;17.842;2023-04-08T04:45:31;102785.94;;;26.16;17.47
14293;BME280;62290;59.420;17.842;2023-04-08T04:47:59;102792.22;;;26.17;17.47
14293;BME280;62290;59.420;17.842;2023-04-08T04:50:27;102780.53;;;26.16;17.54
14293;BME280;62290;59.420;17.842;2023-04-08T04:52:55;102774.25;;;26.16;17.14
14293;BME280;62290;59.420;17.842;2023-04-08T04:55:23;102793.09;;;26.17;17.06
14293;BME280;62290;59.420;17.842;2023-04-08T04:57:51;102792.22;;;26.17;17.13
14293;BME280;62290;59.420;17.842;2023-04-08T05:00:20;102793.28;;;26.14;17.42
14293;BME280;62290;59.420;17.842;2023-04-08T05:02:48;102788.75;;;26.15;17.38
14293;BME280;62290;59.420;17.842;2023-04-08T05:05:17;102793.28;;;26.14;17.44
14293;BME280;62290;59.420;17.842;2023-04-08T05:07:45;102785.41;;;26.10;17.35
14293;BME280;62290;59.420;17.842;2023-04-08T05:10:13;102729.06;;;25.77;17.10
14293;BME280;62290;59.420;17.842;2023-04-08T05:12:41;102797.63;;;26.17;17.35
14293;BME280;62290;59.420;17.842;2023-04-08T05:15:10;102814.59;;;26.19;17.01
14293;BME280;62290;59.420;17.842;2023-04-08T05:17:39;102803.78;;;26.19;16.96
14293;BME280;62290;59.420;17.842;2023-04-08T05:20:08;102807.34;;;26.19;17.47
14293;BME280;62290;59.420;17.842;2023-04-08T05:22:36;102811.88;;;26.19;17.35
14293;BME280;62290;59.420;17.842;2023-04-08T05:25:04;102808.31;;;26.18;17.01
14293;BME280;62290;59.420;17.842;2023-04-08T05:27:32;102804.75;;;26.18;17.45
14293;BME280;62290;59.420;17.842;2023-04-08T05:30:01;102803.91;;;26.17;17.01
14293;BME280;62290;59.420;17.842;2023-04-08T05:32:29;102814.59;;;26.19;17.32
14293;BME280;62290;59.420;17.842;2023-04-08T05:35:01;102810.94;;;26.20;17.38
14293;BME280;62290;59.420;17.842;2023-04-08T05:37:29;102810.81;;;26.21;17.26
14293;BME280;62290;59.420;17.842;2023-04-08T05:39:57;102816.13;;;26.23;17.29
14293;BME280;62290;59.420;17.842;2023-04-08T05:42:25;102815.03;;;26.25;16.86
14293;BME280;62290;59.420;17.842;2023-04-08T05:44:53;102815.03;;;26.25;17.10
14293;BME280;62290;59.420;17.842;2023-04-08T05:47:22;102819.28;;;26.29;16.92
14293;BME280;62290;59.420;17.842;2023-04-08T05:49:50;102816.41;;;26.32;16.96
14293;BME280;62290;59.420;17.842;2023-04-08T05:52:19;102821.69;;;26.34;16.71
14293;BME280;62290;59.420;17.842;2023-04-08T05:54:47;102811.88;;;26.33;16.76
14293;BME280;62290;59.420;17.842;2023-04-08T05:57:15;102794.81;;;26.18;16.95
14293;BME280;62290;59.420;17.842;2023-04-08T05:59:43;102818.22;;;26.32;16.81
14293;BME280;62290;59.420;17.842;2023-04-08T06:02:11;102819.09;;;26.32;16.79
14293;BME280;62290;59.420;17.842;2023-04-08T06:04:39;102818.09;;;26.33;17.18
14293;BME280;62290;59.420;17.842;2023-04-08T06:07:08;102820.81;;;26.33;16.92
14293;BME280;62290;59.420;17.842;2023-04-08T06:09:37;102742.00;;;25.86;17.25
14293;BME280;62290;59.420;17.842;2023-04-08T06:12:05;102818.09;;;26.33;16.96
14293;BME280;62290;59.420;17.842;2023-04-08T06:14:33;102830.66;;;26.34;16.88
14293;BME280;62290;59.420;17.842;2023-04-08T06:17:01;102835.97;;;26.36;16.96
14293;BME280;62290;59.420;17.842;2023-04-08T06:19:29;102827.00;;;26.35;16.98
14293;BME280;62290;59.420;17.842;2023-04-08T06:21:57;102829.72;;;26.35;16.86
14293;BME280;62290;59.420;17.842;2023-04-08T06:24:25;102835.97;;;26.36;16.83
14293;BME280;62290;59.420;17.842;2023-04-08T06:26:56;102829.47;;;26.38;16.93
14293;BME280;62290;59.420;17.842;2023-04-08T06:29:24;102835.75;;;26.39;16.92
14293;BME280;62290;59.420;17.842;2023-04-08T06:31:52;102839.22;;;26.41;16.85
14293;BME280;62290;59.420;17.842;2023-04-08T06:34:20;102829.28;;;26.42;17.14
14293;BME280;62290;59.420;17.842;2023-04-08T06:36:48;102836.44;;;26.43;16.82
14293;BME280;62290;59.420;17.842;2023-04-08T06:39:16;102838.19;;;26.44;16.84
14293;BME280;62290;59.420;17.842;2023-04-08T06:41:46;102838.06;;;26.45;16.96
14293;BME280;62290;59.420;17.842;2023-04-08T06:44:27;102838.81;;;26.47;17.22
14293;BME280;62290;59.420;17.842;2023-04-08T06:46:55;102827.25;;;26.45;16.96
14293;BME280;62290;59.420;17.842;2023-04-08T06:49:23;102836.69;;;26.52;16.74
14293;BME280;62290;59.420;17.842;2023-04-08T06:51:52;102836.38;;;26.57;16.67
14293;BME280;62290;59.420;17.842;2023-04-08T06:54:21;102843.44;;;26.59;17.09
14293;BME280;62290;59.420;17.842;2023-04-08T06:56:48;102842.56;;;26.59;17.05
14293;BME280;62290;59.420;17.842;2023-04-08T06:59:16;102844.75;;;26.66;16.49
14293;BME280;62290;59.420;17.842;2023-04-08T07:01:46;102849.09;;;26.69;16.69
14293;BME280;62290;59.420;17.842;2023-04-08T07:04:14;102848.88;;;26.72;16.66
14293;BME280;62290;59.420;17.842;2023-04-08T07:06:42;102821.88;;;26.58;16.89
14293;BME280;62290;59.420;17.842;2023-04-08T07:09:10;102839.13;;;26.69;16.71
14293;BME280;62290;59.420;17.842;2023-04-08T07:11:38;102859.31;;;26.78;16.78
14293;BME280;62290;59.420;17.842;2023-04-08T07:14:06;102855.53;;;26.80;16.68
14293;BME280;62290;59.420;17.842;2023-04-08T07:16:35;102858.13;;;26.82;16.33
14293;BME280;62290;59.420;17.842;2023-04-08T07:19:04;102845.69;;;26.79;16.75
14293;BME280;62290;59.420;17.842;2023-04-08T07:21:32;102866.06;;;26.85;16.36
14293;BME280;62290;59.420;17.842;2023-04-08T07:24:00;102859.66;;;26.86;16.82
14293;BME280;62290;59.420;17.842;2023-04-08T07:26:28;102851.97;;;26.80;16.41
14293;BME280;62290;59.420;17.842;2023-04-08T07:28:56;102867.56;;;26.89;16.78
14293;BME280;62290;59.420;17.842;2023-04-08T07:31:24;102861.28;;;26.88;16.85
14293;BME280;62290;59.420;17.842;2023-04-08T07:33:52;102865.72;;;26.89;16.44
14293;BME280;62290;59.420;17.842;2023-04-08T07:36:22;102857.63;;;26.89;16.51
14293;BME280;62290;59.420;17.842;2023-04-08T07:38:50;102863.69;;;26.93;16.67
14293;BME280;62290;59.420;17.842;2023-04-08T07:41:18;102860.00;;;26.94;16.86
14293;BME280;62290;59.420;17.842;2023-04-08T07:43:46;102868.13;;;26.94;16.36
14293;BME280;62290;59.420;17.842;2023-04-08T07:46:14;102860.00;;;26.94;16.73
14293;BME280;62290;59.420;17.842;2023-04-08T07:48:42;102869.00;;;26.94;16.71
14293;BME280;62290;59.420;17.842;2023-04-08T07:51:11;102854.78;;;26.91;16.40
14293;BME280;62290;59.420;17.842;2023-04-08T07:53:40;102831.16;;;26.80;16.49
14293;BME280;62290;59.420;17.842;2023-04-08T07:56:12;102861.41;;;27.00;16.81
14293;BME280;62290;59.420;17.842;2023-04-08T07:58:41;102865.88;;;27.01;16.72
14293;BME280;62290;59.420;17.842;2023-04-08T08:01:19;102863.91;;;27.03;17.75
14293;BME280;62290;59.420;17.842;2023-04-08T08:03:48;102861.31;;;27.01;18.60
14293;BME280;62290;59.420;17.842;2023-04-08T08:06:18;102862.19;;;27.02;19.18
14293;BME280;62290;59.420;17.842;2023-04-08T08:08:48;102872.78;;;27.05;19.90
14293;BME280;62290;59.420;17.842;2023-04-08T08:11:16;102877.13;;;27.07;19.97
14293;BME280;62290;59.420;17.842;2023-04-08T08:13:44;102870.56;;;27.11;19.92
14293;BME280;62290;59.420;17.842;2023-04-08T08:16:14;102865.88;;;27.13;19.78
14293;BME280;62290;59.420;17.842;2023-04-08T08:18:42;102863.72;;;27.18;19.82
14293;BME280;62290;59.420;17.842;2023-04-08T08:21:10;102838.47;;;27.05;20.71
14293;BME280;62290;59.420;17.842;2023-04-08T08:23:38;102866.09;;;27.23;21.22
14293;BME280;62290;59.420;17.842;2023-04-08T08:26:08;102866.97;;;27.23;22.26
14293;BME280;62290;59.420;17.842;2023-04-08T08:28:37;102867.84;;;27.24;22.81
14293;BME280;62290;59.420;17.842;2023-04-08T08:31:05;102867.09;;;27.22;24.25
14293;BME280;62290;59.420;17.842;2023-04-08T08:33:34;102865.91;;;27.26;25.00
14293;BME280;62290;59.420;17.842;2023-04-08T08:36:02;102868.50;;;27.27;25.50
14293;BME280;62290;59.420;17.842;2023-04-08T08:38:31;102846.41;;;27.21;25.73
14293;BME280;62290;59.420;17.842;2023-04-08T08:40:59;102860.69;;;27.35;26.17
14293;BME280;62290;59.420;17.842;2023-04-08T08:43:31;102859.72;;;27.36;27.16
14293;BME280;62290;59.420;17.842;2023-04-08T08:46:00;102871.25;;;27.40;27.53
14293;BME280;62290;59.420;17.842;2023-04-08T08:48:29;102861.69;;;27.34;28.11
14293;BME280;62290;59.420;17.842;2023-04-08T08:50:57;102867.47;;;27.42;28.39
14293;BME280;62290;59.420;17.842;2023-04-08T08:53:28;102875.28;;;27.47;28.59
14293;BME280;62290;59.420;17.842;2023-04-08T08:56:01;102868.09;;;27.46;28.05
14293;BME280;62290;59.420;17.842;2023-04-08T08:58:34;102866.72;;;27.53;28.17
14293;BME280;62290;59.420;17.842;2023-04-08T09:01:02;102875.69;;;27.53;27.53
14293;BME280;62290;59.420;17.842;2023-04-08T09:03:30;102868.34;;;27.55;27.51
14293;BME280;62290;59.420;17.842;2023-04-08T09:05:59;102872.56;;;27.60;26.89
14293;BME280;62290;59.420;17.842;2023-04-08T09:08:29;102865.16;;;27.62;26.54
14293;BME280;62290;59.420;17.842;2023-04-08T09:11:11;102858.66;;;27.64;25.62
14293;BME280;62290;59.420;17.842;2023-04-08T09:13:40;102877.41;;;27.67;25.29
14293;BME280;62290;59.420;17.842;2023-04-08T09:16:10;102854.88;;;27.67;26.34
14293;BME280;62290;59.420;17.842;2023-04-08T09:18:39;102860.19;;;27.68;26.43
14293;BME280;62290;59.420;17.842;2023-04-08T09:21:10;102856.75;;;27.66;26.80
14293;BME280;62290;59.420;17.842;2023-04-08T09:23:40;102859.53;;;27.65;26.66
14293;BME280;62290;59.420;17.842;2023-04-08T09:26:09;102846.88;;;27.52;27.27
14293;BME280;62290;59.420;17.842;2023-04-08T09:28:41;102835.50;;;27.47;27.40
14293;BME280;62290;59.420;17.842;2023-04-08T09:31:19;102850.13;;;27.58;27.01
14293;BME280;62290;59.420;17.842;2023-04-08T09:33:48;102863.34;;;27.62;26.91
14293;BME280;62290;59.420;17.842;2023-04-08T09:36:17;102856.97;;;27.63;25.85
14293;BME280;62290;59.420;17.842;2023-04-08T09:38:45;102857.91;;;27.62;25.30
14293;BME280;62290;59.420;17.842;2023-04-08T09:41:17;102853.91;;;27.68;24.97
14293;BME280;62290;59.420;17.842;2023-04-08T09:43:49;102811.97;;;27.48;24.76
14293;BME280;62290;59.420;17.842;2023-04-08T09:46:24;102850.88;;;27.72;24.13
14293;BME280;62290;59.420;17.842;2023-04-08T09:49:04;102843.59;;;27.73;23.63
14293;BME280;62290;59.420;17.842;2023-04-08T09:51:39;102839.63;;;27.66;23.29
14293;BME280;62290;59.420;17.842;2023-04-08T09:54:12;102845.22;;;27.75;23.16
14293;BME280;62290;59.420;17.842;2023-04-08T09:56:52;102846.09;;;27.76;22.45
14293;BME280;62290;59.420;17.842;2023-04-08T09:59:26;102851.84;;;27.71;21.91
14293;BME280;62290;59.420;17.842;2023-04-08T10:01:58;102850.31;;;27.67;21.35
14293;BME280;62290;59.420;17.842;2023-04-08T10:04:28;102853.38;;;27.63;20.67
14293;BME280;62290;59.420;17.842;2023-04-08T10:07:03;102854.34;;;27.62;20.47
14293;BME280;62290;59.420;17.842;2023-04-08T10:09:32;102841.00;;;27.58;20.57
14293;BME280;62290;59.420;17.842;2023-04-08T10:12:02;102825.84;;;27.43;20.42
14293;BME280;62290;59.420;17.842;2023-04-08T10:14:32;102845.88;;;27.53;20.40
14293;BME280;62290;59.420;17.842;2023-04-08T10:17:25;102845.13;;;27.51;20.28
14293;BME280;62290;59.420;17.842;2023-04-08T10:19:54;102843.63;;;27.47;20.79
14293;BME280;62290;59.420;17.842;2023-04-08T10:22:46;102849.81;;;27.49;20.85
14293;BME280;62290;59.420;17.842;2023-04-08T10:25:31;102815.34;;;27.26;20.49
14293;BME280;62290;59.420;17.842;2023-04-08T10:28:00;102844.81;;;27.43;20.17
14293;BME280;62290;59.420;17.842;2023-04-08T10:30:40;102843.94;;;27.43;19.92
14293;BME280;62290;59.420;17.842;2023-04-08T10:33:10;102840.59;;;27.39;19.89
14293;BME280;62290;59.420;17.842;2023-04-08T10:35:41;102833.41;;;27.38;19.82
14293;BME280;62290;59.420;17.842;2023-04-08T10:38:12;102829.94;;;27.36;19.37
14293;BME280;62290;59.420;17.842;2023-04-08T10:40:41;102833.75;;;27.34;19.32
14293;BME280;62290;59.420;17.842;2023-04-08T10:43:10;102835.56;;;27.33;19.25
14293;BME280;62290;59.420;17.842;2023-04-08T10:45:41;102829.28;;;27.33;18.92
14293;BME280;62290;59.420;17.842;2023-04-08T10:48:13;102796.47;;;27.12;18.66
14293;BME280;62290;59.420;17.842;2023-04-08T10:50:44;102818.78;;;27.28;18.66
14293;BME280;62290;59.420;17.842;2023-04-08T10:53:12;102830.59;;;27.27;18.75
14293;BME280;62290;59.420;17.842;2023-04-08T10:55:40;102827.13;;;27.25;18.44
14293;BME280;62290;59.420;17.842;2023-04-08T10:58:09;102821.91;;;27.22;18.23
14293;BME280;62290;59.420;17.842;2023-04-08T11:00:40;102815.41;;;27.12;18.08
14293;BME280;62290;59.420;17.842;2023-04-08T11:03:09;102811.97;;;27.10;18.27
14293;BME280;62290;59.420;17.842;2023-04-08T11:05:41;102824.97;;;27.18;18.18
14293;BME280;62290;59.420;17.842;2023-04-08T11:08:09;102825.06;;;27.16;17.64
14293;BME280;62290;59.420;17.842;2023-04-08T11:10:37;102817.91;;;27.15;17.62
14293;BME280;62290;59.420;17.842;2023-04-08T11:13:06;102816.28;;;27.13;17.68
14293;BME280;62290;59.420;17.842;2023-04-08T11:15:35;102821.72;;;27.13;17.74
14293;BME280;62290;59.420;17.842;2023-04-08T11:18:05;102820.94;;;27.11;17.69
14293;BME280;62290;59.420;17.842;2023-04-08T11:20:34;102819.22;;;27.10;17.44
14293;BME280;62290;59.420;17.842;2023-04-08T11:23:02;102820.28;;;27.07;17.34
14293;BME280;62290;59.420;17.842;2023-04-08T11:25:30;102831.25;;;27.06;16.96
14293;BME280;62290;59.420;17.842;2023-04-08T11:27:59;102824.19;;;27.03;17.28
14293;BME280;62290;59.420;17.842;2023-04-08T11:30:28;102813.47;;;27.02;17.22
14293;BME280;62290;59.420;17.842;2023-04-08T11:32:57;102809.47;;;26.94;17.15
14293;BME280;62290;59.420;17.842;2023-04-08T11:35:29;102788.66;;;26.82;17.17
14293;BME280;62290;59.420;17.842;2023-04-08T11:37:57;102818.13;;;27.00;16.97
14293;BME280;62290;59.420;17.842;2023-04-08T11:40:25;102807.28;;;27.00;16.93
14293;BME280;62290;59.420;17.842;2023-04-08T11:42:54;102786.81;;;26.83;16.82
14293;BME280;62290;59.420;17.842;2023-04-08T11:45:22;102820.81;;;27.00;16.65
14293;BME280;62290;59.420;17.842;2023-04-08T11:47:50;102808.25;;;26.98;16.65
14293;BME280;62290;59.420;17.842;2023-04-08T11:50:22;102814.75;;;26.96;16.47
14293;BME280;62290;59.420;17.842;2023-04-08T11:52:52;102809.25;;;26.98;16.31
14293;BME280;62290;59.420;17.842;2023-04-08T11:55:22;102804.78;;;26.96;16.59
14293;BME280;62290;59.420;17.842;2023-04-08T11:57:51;102802.28;;;26.93;16.42
14293;BME280;62290;59.420;17.842;2023-04-08T12:00:20;102797.66;;;26.95;16.51
14293;BME280;62290;59.420;17.842;2023-04-08T12:02:49;102794.28;;;26.92;16.18
14293;BME280;62290;59.420;17.842;2023-04-08T12:05:18;102794.19;;;26.93;16.19
14293;BME280;62290;59.420;17.842;2023-04-08T12:07:47;102788.75;;;26.93;16.21
14293;BME280;62290;59.420;17.842;2023-04-08T12:10:16;102794.19;;;26.93;16.25
14293;BME280;62290;59.420;17.842;2023-04-08T12:12:44;102799.59;;;26.93;15.81
14293;BME280;62290;59.420;17.842;2023-04-08T12:15:12;102781.63;;;26.92;16.05
14293;BME280;62290;59.420;17.842;2023-04-08T12:17:41;102781.97;;;26.88;16.17
14293;BME280;62290;59.420;17.842;2023-04-08T12:20:11;102785.31;;;26.91;16.06
14293;BME280;62290;59.420;17.842;2023-04-08T12:22:39;102786.19;;;26.92;15.86
14293;BME280;62290;59.420;17.842;2023-04-08T12:25:07;102780.78;;;26.92;15.44
14293;BME280;62290;59.420;17.842;2023-04-08T12:27:37;102779.91;;;26.91;15.55
14293;BME280;62290;59.420;17.842;2023-04-08T12:30:06;102758.41;;;26.76;15.54
14293;BME280;62290;59.420;17.842;2023-04-08T12:32:34;102773.59;;;26.91;15.78
14293;BME280;62290;59.420;17.842;2023-04-08T12:35:03;102779.16;;;26.89;15.81
14293;BME280;62290;59.420;17.842;2023-04-08T12:37:31;102781.84;;;26.89;15.28
14293;BME280;62290;59.420;17.842;2023-04-08T12:39:59;102770.34;;;26.86;15.27
14293;BME280;62290;59.420;17.842;2023-04-08T12:42:28;102773.06;;;26.86;15.23
14293;BME280;62290;59.420;17.842;2023-04-08T12:44:57;102771.34;;;26.85;15.21
14293;BME280;62290;59.420;17.842;2023-04-08T12:47:25;102766.03;;;26.83;15.40
14293;BME280;62290;59.420;17.842;2023-04-08T12:49:53;102759.75;;;26.83;15.50
14293;BME280;62290;59.420;17.842;2023-04-08T12:52:21;102762.44;;;26.83;15.52